createdAt,value
2022-12-05T00:01:13.809Z,11.40
2022-12-05T00:03:42.078Z,10.30
2022-12-05T00:06:11.704Z,12.60
2022-12-05T00:08:40.024Z,11.60
2022-12-05T00:11:12.656Z,11.50
2022-12-05T00:13:41.275Z,10.50
2022-12-05T00:16:10.493Z,10.20
2022-12-05T00:18:38.944Z,12.30
2022-12-05T00:21:07.855Z,11.77
2022-12-05T00:23:37.388Z,10.60
2022-12-05T00:26:06.157Z,9.63
2022-12-05T00:28:34.374Z,11.07
2022-12-05T00:31:04.183Z,9.93
2022-12-05T00:33:33.518Z,11.40
2022-12-05T00:36:03.642Z,11.00
2022-12-05T00:38:31.858Z,12.97
2022-12-05T00:41:05.358Z,12.20
2022-12-05T00:43:33.664Z,10.90
2022-12-05T00:46:02.905Z,11.07
2022-12-05T00:48:31.279Z,14.63
2022-12-05T00:51:03.424Z,11.30
2022-12-05T00:53:31.919Z,11.33
2022-12-05T00:56:04.619Z,11.87
2022-12-05T00:58:33.126Z,11.00
2022-12-05T01:01:06.817Z,10.13
2022-12-05T01:03:35.406Z,10.33
2022-12-05T01:06:05.919Z,10.50
2022-12-05T01:08:34.308Z,12.87
2022-12-05T01:11:03.027Z,16.20
2022-12-05T01:13:32.992Z,15.60
2022-12-05T01:16:01.175Z,14.93
2022-12-05T01:18:29.455Z,13.73
2022-12-05T01:20:57.655Z,13.40
2022-12-05T01:23:26.237Z,13.60
2022-12-05T01:25:54.507Z,13.80
2022-12-05T01:28:22.807Z,14.67
2022-12-05T01:30:52.382Z,12.83
2022-12-05T01:33:20.563Z,14.63
2022-12-05T01:35:48.823Z,13.03
2022-12-05T01:38:17.093Z,12.60
2022-12-05T01:40:45.299Z,11.70
2022-12-05T01:43:16.278Z,15.93
2022-12-05T01:45:45.817Z,14.13
2022-12-05T01:48:17.309Z,13.83
2022-12-05T01:50:45.951Z,14.27
2022-12-05T01:53:14.947Z,13.43
2022-12-05T01:55:43.261Z,13.57
2022-12-05T01:58:11.780Z,11.50
2022-12-05T02:00:40.863Z,11.80
2022-12-05T02:03:10.559Z,10.77
2022-12-05T02:05:40.144Z,13.00
2022-12-05T02:08:10.278Z,11.70
2022-12-05T02:10:40.704Z,11.33
2022-12-05T02:13:13.184Z,11.10
2022-12-05T02:15:46.546Z,10.77
2022-12-05T02:18:20.416Z,12.23
2022-12-05T02:21:00.207Z,11.17
2022-12-05T02:23:31.732Z,11.67
2022-12-05T02:26:10.562Z,8.87
2022-12-05T02:28:47.075Z,10.30
2022-12-05T02:31:19.797Z,11.50
2022-12-05T02:33:49.969Z,9.97
2022-12-05T02:36:20.688Z,12.90
2022-12-05T02:38:53.011Z,12.07
2022-12-05T02:41:23.228Z,12.83
2022-12-05T02:43:54.079Z,12.80
2022-12-05T02:46:24.593Z,9.47
2022-12-05T02:48:55.111Z,11.50
2022-12-05T02:51:25.443Z,10.37
2022-12-05T02:53:54.977Z,11.30
2022-12-05T02:56:23.561Z,9.90
2022-12-05T02:58:54.483Z,10.90
2022-12-05T03:01:27.055Z,13.10
2022-12-05T03:03:56.295Z,10.60
2022-12-05T03:06:28.371Z,11.53
2022-12-05T03:08:58.990Z,10.60
2022-12-05T03:11:27.593Z,10.10
2022-12-05T03:13:57.037Z,11.50
2022-12-05T03:16:30.891Z,12.33
2022-12-05T03:19:02.023Z,10.60
2022-12-05T03:21:32.853Z,12.03
2022-12-05T03:24:02.822Z,10.60
2022-12-05T03:26:38.468Z,10.37
2022-12-05T03:29:12.418Z,9.50
2022-12-05T03:31:44.177Z,11.87
2022-12-05T03:34:15.702Z,10.70
2022-12-05T03:36:47.696Z,10.27
2022-12-05T03:39:20.371Z,11.30
2022-12-05T03:41:54.145Z,11.30
2022-12-05T03:44:25.517Z,10.80
2022-12-05T03:46:56.200Z,10.47
2022-12-05T03:49:32.078Z,10.80
2022-12-05T03:52:04.820Z,11.43
2022-12-05T03:54:35.862Z,10.80
2022-12-05T03:57:05.950Z,8.90
2022-12-05T03:59:38.045Z,11.07
2022-12-05T04:02:10.027Z,10.47
2022-12-05T04:04:40.040Z,9.80
2022-12-05T04:07:09.588Z,8.47
2022-12-05T04:09:39.493Z,9.87
2022-12-05T04:12:09.785Z,10.97
2022-12-05T04:14:41.845Z,9.50
2022-12-05T04:17:11.859Z,10.27
2022-12-05T04:20:00.332Z,9.70
2022-12-05T04:22:29.148Z,9.37
2022-12-05T04:25:16.656Z,10.80
2022-12-05T04:27:50.475Z,10.20
2022-12-05T04:30:20.197Z,9.17
2022-12-05T04:32:53.171Z,10.17
2022-12-05T04:35:24.954Z,8.53
2022-12-05T04:37:55.405Z,9.63
2022-12-05T04:40:29.713Z,9.23
2022-12-05T04:42:58.363Z,9.20
2022-12-05T04:45:27.592Z,8.80
2022-12-05T04:47:59.332Z,10.00
2022-12-05T04:50:29.376Z,7.83
2022-12-05T04:52:58.726Z,9.50
2022-12-05T04:55:28.135Z,8.10
2022-12-05T04:57:59.316Z,9.50
2022-12-05T05:00:28.104Z,9.13
2022-12-05T05:03:00.713Z,8.30
2022-12-05T05:05:29.894Z,9.20
2022-12-05T05:07:58.233Z,9.13
2022-12-05T05:10:28.927Z,8.13
2022-12-05T05:12:57.279Z,9.80
2022-12-05T05:15:25.464Z,9.07
2022-12-05T05:17:53.729Z,9.37
2022-12-05T05:20:27.342Z,8.70
2022-12-05T05:22:56.294Z,9.00
2022-12-05T05:25:25.190Z,10.20
2022-12-05T05:27:54.464Z,8.63
2022-12-05T05:30:23.939Z,7.90
2022-12-05T05:32:52.215Z,8.53
2022-12-05T05:35:20.460Z,9.23
2022-12-05T05:37:50.085Z,9.47
2022-12-05T05:40:18.534Z,9.07
2022-12-05T05:42:47.314Z,8.20
2022-12-05T05:45:16.639Z,7.40
2022-12-05T05:47:44.870Z,7.97
2022-12-05T05:50:19.545Z,8.57
2022-12-05T05:52:50.867Z,8.40
2022-12-05T05:55:19.251Z,7.73
2022-12-05T05:57:57.540Z,8.63
2022-12-05T06:00:25.896Z,8.20
2022-12-05T06:02:54.226Z,8.60
2022-12-05T06:05:22.607Z,8.50
2022-12-05T06:07:54.686Z,8.90
2022-12-05T06:10:23.022Z,9.50
2022-12-05T06:13:04.164Z,7.53
2022-12-05T06:15:32.400Z,8.87
2022-12-05T06:18:00.642Z,7.80
2022-12-05T06:20:28.841Z,7.30
2022-12-05T06:22:58.428Z,8.43
2022-12-05T06:25:26.679Z,7.13
2022-12-05T06:27:54.908Z,10.75
2022-12-05T06:30:23.184Z,9.40
2022-12-05T06:32:51.438Z,8.10
2022-12-05T06:35:19.693Z,8.43
2022-12-05T06:37:47.972Z,9.43
2022-12-05T06:40:17.625Z,7.93
2022-12-05T06:42:45.847Z,8.50
2022-12-05T06:45:14.086Z,9.33
2022-12-05T06:47:42.306Z,8.47
2022-12-05T06:50:11.038Z,8.40
2022-12-05T06:52:39.249Z,9.10
2022-12-05T06:55:08.128Z,8.43
2022-12-05T06:57:39.893Z,9.07
2022-12-05T07:00:26.155Z,8.80
2022-12-05T07:02:54.626Z,8.47
2022-12-05T07:05:22.825Z,9.20
2022-12-05T07:07:51.100Z,8.20
2022-12-05T07:10:19.372Z,9.60
2022-12-05T07:12:49.084Z,7.60
2022-12-05T07:15:17.403Z,7.30
2022-12-05T07:17:45.643Z,8.77
2022-12-05T07:20:17.749Z,8.10
2022-12-05T07:22:46.575Z,8.63
2022-12-05T07:25:14.951Z,6.87
2022-12-05T07:27:43.462Z,8.63
2022-12-05T07:30:13.536Z,8.40
2022-12-05T07:32:41.744Z,7.40
2022-12-05T07:35:10.454Z,7.50
2022-12-05T07:37:38.750Z,7.93
2022-12-05T07:40:07.724Z,7.20
2022-12-05T07:42:36.034Z,7.27
2022-12-05T07:45:04.341Z,7.60
2022-12-05T07:47:33.925Z,7.63
2022-12-05T07:50:02.428Z,6.70
2022-12-05T07:52:30.690Z,6.17
2022-12-05T07:54:59.360Z,7.50
2022-12-05T07:57:27.620Z,7.53
2022-12-05T07:59:56.075Z,7.10
2022-12-05T08:02:24.979Z,7.10
2022-12-05T08:04:54.611Z,8.27
2022-12-05T08:07:22.793Z,7.73
2022-12-05T08:09:50.985Z,6.20
2022-12-05T08:12:19.210Z,7.93
2022-12-05T08:14:47.411Z,7.60
2022-12-05T08:17:15.647Z,7.00
2022-12-05T08:19:43.907Z,6.90
2022-12-05T08:22:13.448Z,6.80
2022-12-05T08:24:41.716Z,8.20
2022-12-05T08:27:09.983Z,6.40
2022-12-05T08:29:38.180Z,6.30
2022-12-05T08:32:06.651Z,7.67
2022-12-05T08:34:34.874Z,6.23
2022-12-05T08:37:03.130Z,8.00
2022-12-05T08:39:38.122Z,7.00
2022-12-05T08:42:06.580Z,6.73
2022-12-05T08:44:34.865Z,8.40
2022-12-05T08:47:03.224Z,7.63
2022-12-05T08:49:31.407Z,7.63
2022-12-05T08:51:59.593Z,8.10
2022-12-05T08:54:27.947Z,7.07
2022-12-05T08:56:57.480Z,6.73
2022-12-05T08:59:25.752Z,7.33
2022-12-05T09:01:54.077Z,6.93
2022-12-05T09:04:22.350Z,8.10
2022-12-05T09:06:51.700Z,8.07
2022-12-05T09:09:19.963Z,7.30
2022-12-05T09:11:50.724Z,8.53
2022-12-05T09:14:20.459Z,8.30
2022-12-05T09:16:49.238Z,7.30
2022-12-05T09:19:18.414Z,8.03
2022-12-05T09:21:46.714Z,10.80
2022-12-05T09:24:15.589Z,7.57
2022-12-05T09:26:44.372Z,8.27
2022-12-05T09:29:16.694Z,9.03
2022-12-05T09:31:47.651Z,10.50
2022-12-05T09:34:15.988Z,7.87
2022-12-05T09:36:44.422Z,7.97
2022-12-05T09:39:13.308Z,8.17
2022-12-05T09:42:08.030Z,8.27
2022-12-05T09:44:54.869Z,8.80
2022-12-05T09:47:31.922Z,8.63
2022-12-05T09:50:04.276Z,8.40
2022-12-05T09:52:35.014Z,7.90
2022-12-05T09:55:05.178Z,7.33
2022-12-05T09:57:35.914Z,10.30
2022-12-05T10:00:06.516Z,10.07
2022-12-05T10:02:40.867Z,7.93
2022-12-05T10:05:12.015Z,8.53
2022-12-05T10:07:42.843Z,12.17
2022-12-05T10:10:23.038Z,13.67
2022-12-05T10:12:55.683Z,12.70
2022-12-05T10:15:31.217Z,9.43
2022-12-05T10:18:03.164Z,8.60
2022-12-05T10:20:34.570Z,11.33
2022-12-05T10:23:05.361Z,13.33
2022-12-05T10:25:34.168Z,8.30
2022-12-05T10:28:03.484Z,11.20
2022-12-05T10:30:32.433Z,14.20
2022-12-05T10:33:09.166Z,8.40
2022-12-05T10:35:39.047Z,8.70
2022-12-05T10:38:08.585Z,13.00
2022-12-05T10:40:38.875Z,8.77
2022-12-05T10:43:08.210Z,14.77
2022-12-05T10:45:39.016Z,14.53
2022-12-05T10:48:11.324Z,13.30
2022-12-05T10:50:42.321Z,15.90
2022-12-05T10:53:14.971Z,14.47
2022-12-05T10:56:06.358Z,16.50
2022-12-05T10:58:33.862Z,16.13
2022-12-05T11:01:09.224Z,16.33
2022-12-05T11:03:40.701Z,17.37
2022-12-05T11:06:16.903Z,16.73
2022-12-05T11:09:04.540Z,16.07
2022-12-05T11:11:35.159Z,15.87
2022-12-05T11:14:04.384Z,16.80
2022-12-05T11:16:33.965Z,15.30
2022-12-05T11:19:18.556Z,15.87
2022-12-05T11:21:46.761Z,13.67
2022-12-05T11:24:22.561Z,12.07
2022-12-05T11:26:51.535Z,12.20
2022-12-05T11:29:36.846Z,12.70
2022-12-05T11:32:05.755Z,11.70
2022-12-05T11:34:39.681Z,10.50
2022-12-05T11:37:11.880Z,10.70
2022-12-05T11:39:40.163Z,9.57
2022-12-05T11:42:16.552Z,10.60
2022-12-05T11:44:57.904Z,10.23
2022-12-05T11:47:36.735Z,11.00
2022-12-05T11:50:14.032Z,11.10
2022-12-05T11:52:52.418Z,11.60
2022-12-05T11:55:23.018Z,11.73
2022-12-05T11:57:59.969Z,14.50
2022-12-05T12:00:31.015Z,12.23
2022-12-05T12:03:16.656Z,11.87
2022-12-05T12:05:51.824Z,10.00
2022-12-05T12:08:23.346Z,11.80
2022-12-05T12:10:56.222Z,11.67
2022-12-05T12:13:33.535Z,12.40
2022-12-05T12:16:08.632Z,11.50
2022-12-05T12:18:53.876Z,10.70
2022-12-05T12:21:27.540Z,11.20
2022-12-05T12:24:01.879Z,10.83
2022-12-05T12:26:35.467Z,13.67
2022-12-05T12:29:10.230Z,11.53
2022-12-05T12:31:53.314Z,11.17
2022-12-05T12:34:45.694Z,10.93
2022-12-05T12:37:18.440Z,10.00
2022-12-05T12:39:52.795Z,11.13
2022-12-05T12:42:26.266Z,11.23
2022-12-05T12:45:01.009Z,11.00
2022-12-05T12:47:32.773Z,10.93
2022-12-05T12:50:06.041Z,10.67
2022-12-05T12:52:44.206Z,9.93
2022-12-05T12:55:20.524Z,9.17
2022-12-05T12:57:57.059Z,9.57
2022-12-05T13:00:31.111Z,8.50
2022-12-05T13:03:02.147Z,8.97
2022-12-05T13:05:34.600Z,9.10
2022-12-05T13:08:07.844Z,9.30
2022-12-05T13:10:39.507Z,10.47
2022-12-05T13:13:09.697Z,9.30
2022-12-05T13:15:40.953Z,10.03
2022-12-05T13:18:13.972Z,9.30
2022-12-05T13:20:42.386Z,10.90
2022-12-05T13:23:14.807Z,9.70
2022-12-05T13:25:43.526Z,9.20
2022-12-05T13:28:25.575Z,10.33
2022-12-05T13:31:02.063Z,9.23
2022-12-05T13:33:33.886Z,9.77
2022-12-05T13:36:25.223Z,9.73
2022-12-05T13:39:17.120Z,9.90
2022-12-05T13:42:05.223Z,9.60
2022-12-05T13:44:42.705Z,8.73
2022-12-05T13:47:29.110Z,8.93
2022-12-05T13:50:00.429Z,8.10
2022-12-05T13:52:30.918Z,8.57
2022-12-05T13:55:03.972Z,7.60
2022-12-05T13:57:54.767Z,8.10
2022-12-05T14:00:26.341Z,10.10
2022-12-05T14:02:55.724Z,8.33
2022-12-05T14:05:40.591Z,9.17
2022-12-05T14:08:27.547Z,8.57
2022-12-05T14:11:10.590Z,9.27
2022-12-05T14:13:43.515Z,10.03
2022-12-05T14:16:30.626Z,11.27
2022-12-05T14:19:04.043Z,16.10
2022-12-05T14:21:38.332Z,8.80
2022-12-05T14:24:09.650Z,15.87
2022-12-05T14:26:48.818Z,10.30
2022-12-05T14:29:26.788Z,12.03
2022-12-05T14:32:04.469Z,12.07
2022-12-05T14:34:34.637Z,13.17
2022-12-05T14:37:04.694Z,14.70
2022-12-05T14:39:38.381Z,13.70
2022-12-05T14:42:20.373Z,10.57
2022-12-05T14:44:49.267Z,12.00
2022-12-05T14:47:21.791Z,13.77
2022-12-05T14:50:02.000Z,12.97
2022-12-05T14:52:32.478Z,13.63
2022-12-05T14:55:03.232Z,10.53
2022-12-05T14:57:33.598Z,11.97
2022-12-05T15:00:03.556Z,10.87
2022-12-05T15:02:33.525Z,10.47
2022-12-05T15:05:05.099Z,10.00
2022-12-05T15:07:37.229Z,9.33
2022-12-05T15:10:07.368Z,13.10
2022-12-05T15:12:41.630Z,11.60
2022-12-05T15:15:17.412Z,12.10
2022-12-05T15:17:47.668Z,10.40
2022-12-05T15:20:21.536Z,8.87
2022-12-05T15:22:49.930Z,9.50
2022-12-05T15:25:29.575Z,9.13
2022-12-05T15:28:00.548Z,10.73
2022-12-05T15:30:29.653Z,10.00
2022-12-05T15:32:59.832Z,9.40
2022-12-05T15:35:29.678Z,14.43
2022-12-05T15:38:00.089Z,10.87
2022-12-05T15:40:37.201Z,10.60
2022-12-05T15:43:28.301Z,11.60
2022-12-05T15:46:09.355Z,11.20
2022-12-05T15:48:38.804Z,11.37
2022-12-05T15:51:10.249Z,11.43
2022-12-05T15:53:41.904Z,11.80
2022-12-05T15:56:16.362Z,11.30
2022-12-05T15:58:47.655Z,11.57
2022-12-05T16:01:18.423Z,12.87
2022-12-05T16:03:49.244Z,14.70
2022-12-05T16:06:20.485Z,15.57
2022-12-05T16:08:48.877Z,15.40
2022-12-05T16:11:17.764Z,15.97
2022-12-05T16:13:48.184Z,14.30
2022-12-05T16:16:18.013Z,14.20
2022-12-05T16:18:56.138Z,13.43
2022-12-05T16:21:37.979Z,12.70
2022-12-05T16:24:09.237Z,11.67
2022-12-05T16:26:41.121Z,13.40
2022-12-05T16:29:28.285Z,13.30
2022-12-05T16:31:57.197Z,13.20
2022-12-05T16:34:26.015Z,13.37
2022-12-05T16:36:55.862Z,13.07
2022-12-05T16:39:24.907Z,12.17
2022-12-05T16:41:53.894Z,11.97
2022-12-05T16:44:40.090Z,13.67
2022-12-05T16:47:17.938Z,11.60
2022-12-05T16:49:47.449Z,12.20
2022-12-05T16:52:16.666Z,13.53
2022-12-05T16:54:48.193Z,14.00
2022-12-05T16:57:17.030Z,12.57
2022-12-05T16:59:48.393Z,14.17
2022-12-05T17:02:19.083Z,14.77
2022-12-05T17:04:47.855Z,14.73
2022-12-05T17:07:16.072Z,11.80
2022-12-05T17:09:45.535Z,10.67
2022-12-05T17:12:32.323Z,10.33
2022-12-05T17:15:00.861Z,12.23
2022-12-05T17:17:30.770Z,10.70
2022-12-05T17:19:59.083Z,10.67
2022-12-05T17:22:28.324Z,13.07
2022-12-05T17:24:59.724Z,11.40
2022-12-05T17:27:28.228Z,13.10
2022-12-05T17:29:56.675Z,11.43
2022-12-05T17:32:25.088Z,11.57
2022-12-05T17:35:06.739Z,10.67
2022-12-05T17:37:35.480Z,9.60
2022-12-05T17:40:03.714Z,11.50
2022-12-05T17:42:31.967Z,10.47
2022-12-05T17:45:00.921Z,11.17
2022-12-05T17:47:29.487Z,13.83
2022-12-05T17:49:58.116Z,12.43
2022-12-05T17:52:27.922Z,10.70
2022-12-05T17:54:56.498Z,11.70
2022-12-05T17:57:25.168Z,13.17
2022-12-05T17:59:53.411Z,14.97
2022-12-05T18:02:21.687Z,16.00
2022-12-05T18:04:49.925Z,13.47
2022-12-05T18:07:18.390Z,12.30
2022-12-05T18:09:47.991Z,11.40
2022-12-05T18:12:16.297Z,13.87
2022-12-05T18:14:44.524Z,17.20
2022-12-05T18:17:12.720Z,19.67
2022-12-05T18:19:40.946Z,15.57
2022-12-05T18:22:09.129Z,16.10
2022-12-05T18:24:37.345Z,13.10
2022-12-05T18:27:06.954Z,13.33
2022-12-05T18:29:35.401Z,12.63
2022-12-05T18:32:04.826Z,15.07
2022-12-05T18:34:33.065Z,15.97
2022-12-05T18:37:01.366Z,11.70
2022-12-05T18:39:29.697Z,11.40
2022-12-05T18:41:57.942Z,10.80
2022-12-05T18:44:27.646Z,12.73
2022-12-05T18:46:57.014Z,8.70
2022-12-05T18:49:25.370Z,10.03
2022-12-05T18:51:53.633Z,10.80
2022-12-05T18:54:21.965Z,10.40
2022-12-05T18:56:52.716Z,9.73
2022-12-05T18:59:22.226Z,11.00
2022-12-05T19:01:51.976Z,9.63
2022-12-05T19:04:21.434Z,9.87
2022-12-05T19:06:51.288Z,9.87
2022-12-05T19:09:20.765Z,8.13
2022-12-05T19:11:49.947Z,8.60
2022-12-05T19:14:21.981Z,8.00
2022-12-05T19:16:58.314Z,7.50
2022-12-05T19:19:28.427Z,7.17
2022-12-05T19:21:58.810Z,7.50
2022-12-05T19:24:27.239Z,9.73
2022-12-05T19:26:55.461Z,8.50
2022-12-05T19:29:23.718Z,9.60
2022-12-05T19:31:53.481Z,10.87
2022-12-05T19:34:22.555Z,9.60
2022-12-05T19:36:50.776Z,14.30
2022-12-05T19:39:20.502Z,9.40
2022-12-05T19:41:49.068Z,14.50
2022-12-05T19:44:17.364Z,14.80
2022-12-05T19:46:45.924Z,13.50
2022-12-05T19:49:16.350Z,15.17
2022-12-05T19:51:44.883Z,13.97
2022-12-05T19:54:13.490Z,15.50
2022-12-05T19:56:41.700Z,15.10
2022-12-05T19:59:09.931Z,14.87
2022-12-05T20:01:39.166Z,16.27
2022-12-05T20:04:09.273Z,16.27
2022-12-05T20:06:40.183Z,15.87
2022-12-05T20:09:08.948Z,15.90
2022-12-05T20:11:38.983Z,15.87
2022-12-05T20:14:07.529Z,16.80
2022-12-05T20:16:36.661Z,16.63
2022-12-05T20:19:05.109Z,15.97
2022-12-05T20:21:34.135Z,19.00
2022-12-05T20:24:04.480Z,17.70
2022-12-05T20:26:34.288Z,19.67
2022-12-05T20:29:03.060Z,19.03
2022-12-05T20:31:32.102Z,17.47
2022-12-05T20:34:02.593Z,17.10
2022-12-05T20:36:31.821Z,18.00
2022-12-05T20:39:01.014Z,18.30
2022-12-05T20:41:30.576Z,18.70
2022-12-05T20:43:59.568Z,16.97
2022-12-05T20:46:28.415Z,16.80
2022-12-05T20:49:02.716Z,16.90
2022-12-05T20:51:32.033Z,15.63
2022-12-05T20:54:01.133Z,18.07
2022-12-05T20:56:31.587Z,17.17
2022-12-05T20:59:01.377Z,16.60
2022-12-05T21:01:30.363Z,14.30
2022-12-05T21:03:58.860Z,12.57
2022-12-05T21:06:28.686Z,14.47
2022-12-05T21:08:57.690Z,14.40
2022-12-05T21:11:28.725Z,12.20
2022-12-05T21:14:00.085Z,13.13
2022-12-05T21:16:28.853Z,13.80
2022-12-05T21:18:57.152Z,13.83
2022-12-05T21:21:26.399Z,12.93
2022-12-05T21:23:55.384Z,14.27
2022-12-05T21:26:24.329Z,12.50
2022-12-05T21:28:52.588Z,14.73
2022-12-05T21:31:23.393Z,12.40
2022-12-05T21:33:52.476Z,13.10
2022-12-05T21:36:21.402Z,14.13
2022-12-05T21:38:55.697Z,15.00
2022-12-05T21:41:24.853Z,13.40
2022-12-05T21:43:55.401Z,14.50
2022-12-05T21:46:25.643Z,14.10
2022-12-05T21:48:54.340Z,14.10
2022-12-05T21:51:22.767Z,15.00
2022-12-05T21:53:51.118Z,15.40
2022-12-05T21:56:20.320Z,15.00
2022-12-05T21:58:49.019Z,15.50
2022-12-05T22:01:18.954Z,16.10
2022-12-05T22:03:48.856Z,16.07
2022-12-05T22:06:17.431Z,17.20
2022-12-05T22:08:47.018Z,16.20
2022-12-05T22:11:16.548Z,17.17
2022-12-05T22:13:45.320Z,14.27
2022-12-05T22:16:14.457Z,16.90
2022-12-05T22:18:43.286Z,16.47
2022-12-05T22:21:14.436Z,13.20
2022-12-05T22:23:42.934Z,14.77
2022-12-05T22:26:13.315Z,13.60
2022-12-05T22:28:41.852Z,13.93
2022-12-05T22:31:10.955Z,12.73
2022-12-05T22:33:39.497Z,14.50
2022-12-05T22:36:09.141Z,14.70
2022-12-05T22:38:40.698Z,13.37
2022-12-05T22:41:10.858Z,12.03
2022-12-05T22:43:39.343Z,14.00
2022-12-05T22:46:08.538Z,15.50
2022-12-05T22:48:36.835Z,13.13
2022-12-05T22:51:05.452Z,15.07
2022-12-05T22:53:34.178Z,12.97
2022-12-05T22:56:05.246Z,13.83
2022-12-05T22:58:34.113Z,13.73
2022-12-05T23:01:10.141Z,12.80
2022-12-05T23:03:38.642Z,12.27
2022-12-05T23:06:11.432Z,13.20
2022-12-05T23:08:40.642Z,13.77
2022-12-05T23:11:10.967Z,14.47
2022-12-05T23:13:39.693Z,13.97
2022-12-05T23:16:08.668Z,11.67
2022-12-05T23:18:46.843Z,11.90
2022-12-05T23:21:19.292Z,13.60
2022-12-05T23:23:49.111Z,12.37
2022-12-05T23:26:19.689Z,12.43
2022-12-05T23:28:48.159Z,11.90
2022-12-05T23:31:16.895Z,13.17
2022-12-05T23:33:49.578Z,15.33
2022-12-05T23:36:19.501Z,12.70
2022-12-05T23:38:48.048Z,11.97
2022-12-05T23:41:17.317Z,12.30
2022-12-05T23:43:47.482Z,13.20
2022-12-05T23:46:16.421Z,13.87
2022-12-05T23:48:45.412Z,13.37
2022-12-05T23:51:14.869Z,10.33
2022-12-05T23:53:44.117Z,11.33
2022-12-05T23:56:14.353Z,11.43
2022-12-05T23:58:42.656Z,11.80
